Date,TemperatureHighF,TemperatureAvgF,TemperatureLowF,DewpointHighF,DewpointAvgF,DewpointLowF,HumidityHigh,HumidityAvg,HumidityLow,PressureMaxIn,PressureMinIn,WindSpeedMaxMPH,WindSpeedAvgMPH,GustSpeedMaxMPH,PrecipitationSumIn
2013-7-1,87.0,81.4,79.0,76.0,74.6,72.0,87,80,67,29.99,29.90,11,4,11,0.40
2013-7-2,87.0,82.3,76.0,77.0,75.2,71.0,93,80,69,30.09,29.96,8,4,11,1.10
2013-7-3,87.0,82.0,78.0,77.0,74.6,72.0,89,79,67,30.10,30.02,11,4,11,0.10
2013-7-4,88.0,84.2,79.0,76.0,73.9,70.0,82,72,63,30.13,30.05,11,6,16,1.00
2013-7-5,86.0,80.6,76.0,77.0,74.3,72.0,93,82,70,30.13,30.03,12,4,12,3.90
2013-7-6,86.0,82.4,80.0,76.0,73.6,71.0,86,75,64,30.10,30.01,10,6,12,5.10
2013-7-7,88.0,83.4,80.0,76.0,73.7,70.0,81,73,60,30.08,30.01,9,5,13,1.00
2013-7-8,88.0,82.8,80.0,74.0,72.4,71.0,78,71,59,30.13,30.05,8,4,10,0.00
2013-7-9,86.0,81.3,76.0,74.0,72.0,68.0,88,74,58,30.11,30.03,10,2,11,0.10
2013-7-10,84.0,77.0,71.0,75.0,68.8,-99.9,95,80,70,30.06,29.98,11,3,11,0.10
2013-7-11,89.0,82.0,76.0,76.0,73.7,71.0,92,77,58,30.01,29.93,9,2,9,2.20
2013-7-12,88.0,80.2,77.0,77.0,73.3,69.0,93,81,57,29.95,29.89,9,2,9,0.20
2013-7-13,87.0,76.1,73.0,76.0,72.3,71.0,95,89,63,30.01,29.90,6,2,7,0.20
2013-7-14,87.0,78.7,72.0,75.0,72.5,70.0,95,83,59,30.06,29.96,10,3,13,0.50
2013-7-15,87.0,78.6,73.0,75.0,72.4,70.0,95,83,60,30.06,29.99,7,2,12,1.40
2013-7-16,83.0,78.6,73.0,74.0,71.1,69.0,94,78,65,30.12,30.02,10,4,11,3.70
2013-7-17,81.0,77.7,73.0,74.0,72.5,71.0,95,84,76,30.12,30.02,7,3,9,3.90
2013-7-18,83.0,75.1,72.0,76.0,72.4,69.0,95,92,75,30.09,30.03,11,1,11,9.70
2013-7-19,86.0,79.3,74.0,78.0,74.5,72.0,95,86,69,30.11,30.03,9,3,13,6.80
2013-7-20,85.0,81.2,77.0,78.0,74.1,-99.9,91,81,72,30.08,30.01,10,4,10,0.90
2013-7-21,89.0,81.3,76.0,78.0,75.4,73.0,93,83,68,30.13,30.03,8,2,10,0.90
2013-7-22,88.0,81.6,78.0,76.0,74.8,73.0,88,80,62,30.12,30.06,7,2,8,0.10
2013-7-23,90.0,83.2,78.0,76.0,74.2,71.0,90,75,55,30.09,29.96,7,3,8,0.00
2013-7-24,92.0,84.6,78.0,76.0,72.7,67.0,91,70,47,30.00,29.90,9,4,11,0.00
2013-7-25,93.0,83.4,77.0,75.0,73.0,71.0,89,72,49,30.00,29.90,8,3,11,0.00
2013-7-26,91.0,81.8,78.0,77.0,74.3,71.0,88,79,53,30.00,29.92,10,4,10,0.00
2013-7-27,90.0,79.8,76.0,77.0,74.9,73.0,94,86,60,29.98,29.92,11,2,11,3.50
2013-7-28,85.0,80.2,74.0,77.0,74.8,72.0,93,84,71,30.05,29.93,8,2,12,5.20
2013-7-29,88.0,80.7,76.0,77.0,75.2,72.0,94,84,68,30.12,30.00,9,2,14,4.20
2013-7-30,88.0,83.6,74.0,79.0,76.0,71.0,93,78,65,30.14,30.06,9,3,10,0.70
2013-7-31,88.0,84.2,80.0,76.0,74.5,71.0,85,73,63,30.09,29.99,10,4,10,4.10